sensor_id;sensor_type;location;lat;lon;timestamp;P1;durP1;ratioP1;P2;durP2;ratioP2
49978;SDS011;35869;50.990;6.962;2023-02-28T00:02:29;3.47;;;3.17;;
49978;SDS011;35869;50.990;6.962;2023-02-28T00:07:30;4.82;;;2.33;;
49978;SDS011;35869;50.990;6.962;2023-02-28T00:17:31;4.65;;;2.08;;
49978;SDS011;35869;50.990;6.962;2023-02-28T00:22:31;6.85;;;2.50;;
49978;SDS011;35869;50.990;6.962;2023-02-28T00:27:31;3.85;;;2.00;;
49978;SDS011;35869;50.990;6.962;2023-02-28T00:32:32;2.97;;;2.40;;
49978;SDS011;35869;50.990;6.962;2023-02-28T00:37:32;4.65;;;2.60;;
49978;SDS011;35869;50.990;6.962;2023-02-28T00:42:33;2.72;;;2.13;;
49978;SDS011;35869;50.990;6.962;2023-02-28T00:47:34;3.58;;;2.22;;
49978;SDS011;35869;50.990;6.962;2023-02-28T00:52:34;4.20;;;2.35;;
49978;SDS011;35869;50.990;6.962;2023-02-28T00:57:34;2.92;;;2.00;;
49978;SDS011;35869;50.990;6.962;2023-02-28T01:02:34;3.10;;;2.42;;
49978;SDS011;35869;50.990;6.962;2023-02-28T01:07:34;4.00;;;2.42;;
49978;SDS011;35869;50.990;6.962;2023-02-28T01:12:35;4.50;;;2.30;;
49978;SDS011;35869;50.990;6.962;2023-02-28T01:17:35;3.10;;;2.30;;
49978;SDS011;35869;50.990;6.962;2023-02-28T01:22:35;3.70;;;2.30;;
49978;SDS011;35869;50.990;6.962;2023-02-28T01:27:36;3.95;;;2.40;;
49978;SDS011;35869;50.990;6.962;2023-02-28T01:32:36;2.78;;;2.50;;
49978;SDS011;35869;50.990;6.962;2023-02-28T01:37:36;2.80;;;2.37;;
49978;SDS011;35869;50.990;6.962;2023-02-28T01:42:37;2.90;;;2.40;;
49978;SDS011;35869;50.990;6.962;2023-02-28T01:47:40;4.33;;;2.63;;
49978;SDS011;35869;50.990;6.962;2023-02-28T01:52:43;4.15;;;2.35;;
49978;SDS011;35869;50.990;6.962;2023-02-28T01:57:48;3.38;;;2.40;;
49978;SDS011;35869;50.990;6.962;2023-02-28T02:02:53;3.72;;;2.67;;
49978;SDS011;35869;50.990;6.962;2023-02-28T02:08:01;4.05;;;2.60;;
49978;SDS011;35869;50.990;6.962;2023-02-28T02:40:05;3.17;;;2.40;;
49978;SDS011;35869;50.990;6.962;2023-02-28T02:45:23;3.13;;;2.45;;
49978;SDS011;35869;50.990;6.962;2023-02-28T02:50:30;2.92;;;2.35;;
49978;SDS011;35869;50.990;6.962;2023-02-28T02:55:37;2.60;;;2.33;;
49978;SDS011;35869;50.990;6.962;2023-02-28T03:00:41;3.40;;;2.20;;
49978;SDS011;35869;50.990;6.962;2023-02-28T03:05:46;2.53;;;2.33;;
49978;SDS011;35869;50.990;6.962;2023-02-28T03:10:50;5.25;;;2.40;;
49978;SDS011;35869;50.990;6.962;2023-02-28T03:15:56;2.85;;;2.35;;
49978;SDS011;35869;50.990;6.962;2023-02-28T03:21:14;2.53;;;2.10;;
49978;SDS011;35869;50.990;6.962;2023-02-28T03:26:19;3.30;;;2.30;;
49978;SDS011;35869;50.990;6.962;2023-02-28T03:31:27;3.38;;;2.03;;
49978;SDS011;35869;50.990;6.962;2023-02-28T03:36:35;2.50;;;2.30;;
49978;SDS011;35869;50.990;6.962;2023-02-28T03:41:45;4.70;;;2.38;;
49978;SDS011;35869;50.990;6.962;2023-02-28T03:46:58;4.85;;;2.85;;
49978;SDS011;35869;50.990;6.962;2023-02-28T03:52:04;2.83;;;2.10;;
49978;SDS011;35869;50.990;6.962;2023-02-28T04:02:41;4.25;;;3.22;;
49978;SDS011;35869;50.990;6.962;2023-02-28T04:07:41;6.27;;;3.60;;
49978;SDS011;35869;50.990;6.962;2023-02-28T04:12:41;3.53;;;3.22;;
49978;SDS011;35869;50.990;6.962;2023-02-28T04:17:41;4.78;;;3.10;;
49978;SDS011;35869;50.990;6.962;2023-02-28T04:22:42;4.88;;;3.10;;
49978;SDS011;35869;50.990;6.962;2023-02-28T04:27:42;3.67;;;2.92;;
49978;SDS011;35869;50.990;6.962;2023-02-28T04:32:42;4.75;;;3.15;;
49978;SDS011;35869;50.990;6.962;2023-02-28T04:37:42;3.97;;;3.05;;
49978;SDS011;35869;50.990;6.962;2023-02-28T04:42:42;3.05;;;2.75;;
49978;SDS011;35869;50.990;6.962;2023-02-28T04:47:43;3.83;;;2.83;;
49978;SDS011;35869;50.990;6.962;2023-02-28T04:52:43;3.40;;;3.10;;
49978;SDS011;35869;50.990;6.962;2023-02-28T04:57:43;3.50;;;2.85;;
49978;SDS011;35869;50.990;6.962;2023-02-28T05:02:43;4.65;;;2.85;;
49978;SDS011;35869;50.990;6.962;2023-02-28T05:07:44;3.63;;;2.83;;
49978;SDS011;35869;50.990;6.962;2023-02-28T05:12:44;3.33;;;2.90;;
49978;SDS011;35869;50.990;6.962;2023-02-28T05:17:45;5.20;;;3.23;;
49978;SDS011;35869;50.990;6.962;2023-02-28T05:22:45;4.40;;;2.75;;
49978;SDS011;35869;50.990;6.962;2023-02-28T05:27:45;5.15;;;2.85;;
49978;SDS011;35869;50.990;6.962;2023-02-28T05:32:48;5.30;;;3.17;;
49978;SDS011;35869;50.990;6.962;2023-02-28T05:37:50;3.30;;;2.90;;
49978;SDS011;35869;50.990;6.962;2023-02-28T05:42:50;6.55;;;3.05;;
49978;SDS011;35869;50.990;6.962;2023-02-28T05:47:53;3.00;;;2.70;;
49978;SDS011;35869;50.990;6.962;2023-02-28T05:52:53;5.63;;;2.67;;
49978;SDS011;35869;50.990;6.962;2023-02-28T05:57:54;3.42;;;2.63;;
49978;SDS011;35869;50.990;6.962;2023-02-28T06:02:54;3.13;;;2.83;;
49978;SDS011;35869;50.990;6.962;2023-02-28T06:07:54;3.03;;;2.72;;
49978;SDS011;35869;50.990;6.962;2023-02-28T06:12:54;4.80;;;2.40;;
49978;SDS011;35869;50.990;6.962;2023-02-28T06:17:55;3.40;;;2.83;;
49978;SDS011;35869;50.990;6.962;2023-02-28T06:22:56;4.65;;;3.50;;
49978;SDS011;35869;50.990;6.962;2023-02-28T06:27:57;2.90;;;2.65;;
49978;SDS011;35869;50.990;6.962;2023-02-28T06:32:57;3.90;;;3.00;;
49978;SDS011;35869;50.990;6.962;2023-02-28T06:37:57;3.63;;;3.20;;
49978;SDS011;35869;50.990;6.962;2023-02-28T06:42:58;4.40;;;2.90;;
49978;SDS011;35869;50.990;6.962;2023-02-28T06:47:58;3.08;;;2.78;;
49978;SDS011;35869;50.990;6.962;2023-02-28T06:52:58;3.50;;;2.75;;
49978;SDS011;35869;50.990;6.962;2023-02-28T06:57:58;3.22;;;2.92;;
49978;SDS011;35869;50.990;6.962;2023-02-28T07:02:59;4.93;;;2.80;;
49978;SDS011;35869;50.990;6.962;2023-02-28T07:07:59;5.28;;;2.78;;
49978;SDS011;35869;50.990;6.962;2023-02-28T07:12:59;3.55;;;2.88;;
49978;SDS011;35869;50.990;6.962;2023-02-28T07:18:00;3.72;;;2.65;;
49978;SDS011;35869;50.990;6.962;2023-02-28T07:23:00;5.15;;;2.97;;
49978;SDS011;35869;50.990;6.962;2023-02-28T07:28:00;3.60;;;2.83;;
49978;SDS011;35869;50.990;6.962;2023-02-28T07:33:00;3.40;;;3.05;;
49978;SDS011;35869;50.990;6.962;2023-02-28T07:38:01;2.63;;;2.42;;
49978;SDS011;35869;50.990;6.962;2023-02-28T07:43:01;3.30;;;2.30;;
49978;SDS011;35869;50.990;6.962;2023-02-28T07:48:03;2.20;;;2.00;;
49978;SDS011;35869;50.990;6.962;2023-02-28T07:53:03;4.10;;;2.50;;
49978;SDS011;35869;50.990;6.962;2023-02-28T07:58:03;3.63;;;2.38;;
49978;SDS011;35869;50.990;6.962;2023-02-28T08:03:03;2.92;;;2.05;;
49978;SDS011;35869;50.990;6.962;2023-02-28T08:08:03;1.90;;;1.80;;
49978;SDS011;35869;50.990;6.962;2023-02-28T08:13:04;2.30;;;2.10;;
49978;SDS011;35869;50.990;6.962;2023-02-28T08:18:04;2.38;;;1.73;;
49978;SDS011;35869;50.990;6.962;2023-02-28T08:23:05;2.78;;;1.92;;
49978;SDS011;35869;50.990;6.962;2023-02-28T08:28:05;5.70;;;2.10;;
49978;SDS011;35869;50.990;6.962;2023-02-28T08:33:05;2.17;;;1.77;;
49978;SDS011;35869;50.990;6.962;2023-02-28T08:38:05;1.85;;;1.60;;
49978;SDS011;35869;50.990;6.962;2023-02-28T08:43:06;2.17;;;1.70;;
49978;SDS011;35869;50.990;6.962;2023-02-28T08:48:06;2.25;;;1.83;;
49978;SDS011;35869;50.990;6.962;2023-02-28T08:53:06;1.40;;;1.30;;
49978;SDS011;35869;50.990;6.962;2023-02-28T08:58:07;1.80;;;1.65;;
49978;SDS011;35869;50.990;6.962;2023-02-28T09:03:07;3.25;;;1.58;;
49978;SDS011;35869;50.990;6.962;2023-02-28T09:08:07;1.30;;;1.20;;
49978;SDS011;35869;50.990;6.962;2023-02-28T09:13:07;1.95;;;1.48;;
49978;SDS011;35869;50.990;6.962;2023-02-28T09:18:07;1.23;;;1.13;;
49978;SDS011;35869;50.990;6.962;2023-02-28T09:23:08;1.60;;;1.40;;
49978;SDS011;35869;50.990;6.962;2023-02-28T09:28:09;1.65;;;1.55;;
49978;SDS011;35869;50.990;6.962;2023-02-28T09:33:10;1.77;;;1.42;;
49978;SDS011;35869;50.990;6.962;2023-02-28T09:38:10;2.83;;;1.58;;
49978;SDS011;35869;50.990;6.962;2023-02-28T09:43:10;1.92;;;1.23;;
49978;SDS011;35869;50.990;6.962;2023-02-28T09:48:14;1.23;;;1.13;;
49978;SDS011;35869;50.990;6.962;2023-02-28T09:53:22;1.30;;;1.17;;
49978;SDS011;35869;50.990;6.962;2023-02-28T09:58:42;2.22;;;1.38;;
49978;SDS011;35869;50.990;6.962;2023-02-28T10:03:50;1.30;;;1.20;;
49978;SDS011;35869;50.990;6.962;2023-02-28T10:09:04;1.60;;;1.10;;
49978;SDS011;35869;50.990;6.962;2023-02-28T10:14:14;1.40;;;1.30;;
49978;SDS011;35869;50.990;6.962;2023-02-28T10:19:33;1.48;;;1.10;;
49978;SDS011;35869;50.990;6.962;2023-02-28T10:24:44;1.45;;;1.10;;
49978;SDS011;35869;50.990;6.962;2023-02-28T10:29:50;3.40;;;1.10;;
49978;SDS011;35869;50.990;6.962;2023-02-28T10:34:57;1.00;;;0.90;;
49978;SDS011;35869;50.990;6.962;2023-02-28T10:45:17;1.65;;;1.05;;
49978;SDS011;35869;50.990;6.962;2023-02-28T10:55:32;1.75;;;1.48;;
49978;SDS011;35869;50.990;6.962;2023-02-28T11:00:33;1.90;;;1.15;;
49978;SDS011;35869;50.990;6.962;2023-02-28T11:05:35;1.65;;;1.30;;
49978;SDS011;35869;50.990;6.962;2023-02-28T11:10:36;1.65;;;1.55;;
49978;SDS011;35869;50.990;6.962;2023-02-28T11:15:37;2.28;;;1.10;;
49978;SDS011;35869;50.990;6.962;2023-02-28T11:20:37;1.30;;;1.20;;
49978;SDS011;35869;50.990;6.962;2023-02-28T11:25:39;1.50;;;1.40;;
49978;SDS011;35869;50.990;6.962;2023-02-28T11:30:40;1.60;;;1.50;;
49978;SDS011;35869;50.990;6.962;2023-02-28T11:35:41;2.60;;;2.00;;
49978;SDS011;35869;50.990;6.962;2023-02-28T11:51:04;1.63;;;1.48;;
49978;SDS011;35869;50.990;6.962;2023-02-28T12:01:32;2.78;;;1.80;;
49978;SDS011;35869;50.990;6.962;2023-02-28T12:06:50;2.47;;;1.52;;
49978;SDS011;35869;50.990;6.962;2023-02-28T12:28:00;2.15;;;1.85;;
49978;SDS011;35869;50.990;6.962;2023-02-28T12:33:03;1.97;;;1.77;;
49978;SDS011;35869;50.990;6.962;2023-02-28T12:38:12;2.25;;;1.75;;
49978;SDS011;35869;50.990;6.962;2023-02-28T12:43:15;3.22;;;1.90;;
49978;SDS011;35869;50.990;6.962;2023-02-28T12:49:00;2.42;;;1.83;;
49978;SDS011;35869;50.990;6.962;2023-02-28T12:59:03;2.42;;;2.08;;
49978;SDS011;35869;50.990;6.962;2023-02-28T13:09:35;2.80;;;2.10;;
49978;SDS011;35869;50.990;6.962;2023-02-28T13:14:36;2.47;;;2.20;;
49978;SDS011;35869;50.990;6.962;2023-02-28T13:19:39;2.95;;;2.38;;
49978;SDS011;35869;50.990;6.962;2023-02-28T13:29:53;3.65;;;2.25;;
49978;SDS011;35869;50.990;6.962;2023-02-28T13:39:53;2.95;;;2.08;;
49978;SDS011;35869;50.990;6.962;2023-02-28T13:50:14;3.88;;;1.65;;
49978;SDS011;35869;50.990;6.962;2023-02-28T14:06:07;1.90;;;1.60;;
49978;SDS011;35869;50.990;6.962;2023-02-28T14:11:36;2.00;;;1.80;;
49978;SDS011;35869;50.990;6.962;2023-02-28T14:16:39;2.60;;;2.20;;
49978;SDS011;35869;50.990;6.962;2023-02-28T14:27:29;3.58;;;2.20;;
49978;SDS011;35869;50.990;6.962;2023-02-28T14:38:25;3.30;;;2.15;;
49978;SDS011;35869;50.990;6.962;2023-02-28T14:43:29;2.22;;;1.85;;
49978;SDS011;35869;50.990;6.962;2023-02-28T14:48:29;3.33;;;2.08;;
49978;SDS011;35869;50.990;6.962;2023-02-28T14:53:30;2.50;;;2.30;;
49978;SDS011;35869;50.990;6.962;2023-02-28T14:58:36;6.65;;;2.60;;
49978;SDS011;35869;50.990;6.962;2023-02-28T15:03:37;3.97;;;2.33;;
49978;SDS011;35869;50.990;6.962;2023-02-28T15:08:39;4.03;;;2.58;;
49978;SDS011;35869;50.990;6.962;2023-02-28T15:23:58;4.88;;;2.17;;
49978;SDS011;35869;50.990;6.962;2023-02-28T15:29:04;3.17;;;1.98;;
49978;SDS011;35869;50.990;6.962;2023-02-28T15:34:06;2.47;;;1.92;;
49978;SDS011;35869;50.990;6.962;2023-02-28T15:39:20;2.28;;;2.08;;
49978;SDS011;35869;50.990;6.962;2023-02-28T15:44:24;2.53;;;1.88;;
49978;SDS011;35869;50.990;6.962;2023-02-28T15:49:28;8.07;;;2.30;;
49978;SDS011;35869;50.990;6.962;2023-02-28T15:54:33;5.78;;;2.42;;
49978;SDS011;35869;50.990;6.962;2023-02-28T16:04:36;2.90;;;1.95;;
49978;SDS011;35869;50.990;6.962;2023-02-28T16:09:37;3.28;;;2.38;;
49978;SDS011;35869;50.990;6.962;2023-02-28T16:14:37;2.20;;;2.00;;
49978;SDS011;35869;50.990;6.962;2023-02-28T16:19:37;3.05;;;1.75;;
49978;SDS011;35869;50.990;6.962;2023-02-28T16:24:37;3.40;;;2.08;;
49978;SDS011;35869;50.990;6.962;2023-02-28T16:29:37;2.72;;;2.08;;
49978;SDS011;35869;50.990;6.962;2023-02-28T16:34:38;2.25;;;1.63;;
49978;SDS011;35869;50.990;6.962;2023-02-28T16:39:38;2.33;;;2.00;;
49978;SDS011;35869;50.990;6.962;2023-02-28T16:44:38;4.53;;;2.37;;
49978;SDS011;35869;50.990;6.962;2023-02-28T16:49:40;2.53;;;2.22;;
49978;SDS011;35869;50.990;6.962;2023-02-28T16:54:40;4.00;;;2.37;;
49978;SDS011;35869;50.990;6.962;2023-02-28T17:04:41;6.43;;;2.35;;
49978;SDS011;35869;50.990;6.962;2023-02-28T17:09:42;3.17;;;2.67;;
49978;SDS011;35869;50.990;6.962;2023-02-28T17:14:43;4.45;;;1.67;;
49978;SDS011;35869;50.990;6.962;2023-02-28T17:19:43;2.38;;;2.15;;
49978;SDS011;35869;50.990;6.962;2023-02-28T17:24:43;2.37;;;1.87;;
49978;SDS011;35869;50.990;6.962;2023-02-28T17:29:43;3.08;;;1.80;;
49978;SDS011;35869;50.990;6.962;2023-02-28T17:34:44;4.53;;;2.25;;
49978;SDS011;35869;50.990;6.962;2023-02-28T17:39:44;3.55;;;3.00;;
49978;SDS011;35869;50.990;6.962;2023-02-28T17:44:45;4.20;;;2.83;;
49978;SDS011;35869;50.990;6.962;2023-02-28T17:49:45;3.30;;;3.00;;
49978;SDS011;35869;50.990;6.962;2023-02-28T17:54:45;7.53;;;2.65;;
49978;SDS011;35869;50.990;6.962;2023-02-28T17:59:45;6.05;;;2.85;;
49978;SDS011;35869;50.990;6.962;2023-02-28T18:04:45;4.57;;;3.42;;
49978;SDS011;35869;50.990;6.962;2023-02-28T18:09:46;5.05;;;2.72;;
49978;SDS011;35869;50.990;6.962;2023-02-28T18:14:46;3.92;;;2.88;;
49978;SDS011;35869;50.990;6.962;2023-02-28T18:19:46;3.42;;;2.85;;
49978;SDS011;35869;50.990;6.962;2023-02-28T18:24:46;4.15;;;3.03;;
49978;SDS011;35869;50.990;6.962;2023-02-28T18:29:47;6.32;;;3.58;;
49978;SDS011;35869;50.990;6.962;2023-02-28T18:34:47;6.22;;;3.08;;
49978;SDS011;35869;50.990;6.962;2023-02-28T18:39:47;4.10;;;3.10;;
49978;SDS011;35869;50.990;6.962;2023-02-28T18:44:48;6.53;;;3.27;;
49978;SDS011;35869;50.990;6.962;2023-02-28T18:49:48;3.42;;;3.13;;
49978;SDS011;35869;50.990;6.962;2023-02-28T18:54:48;5.97;;;2.95;;
49978;SDS011;35869;50.990;6.962;2023-02-28T18:59:48;3.95;;;3.50;;
49978;SDS011;35869;50.990;6.962;2023-02-28T19:04:48;6.85;;;3.35;;
49978;SDS011;35869;50.990;6.962;2023-02-28T19:09:49;3.80;;;3.03;;
49978;SDS011;35869;50.990;6.962;2023-02-28T19:14:49;6.47;;;3.58;;
49978;SDS011;35869;50.990;6.962;2023-02-28T19:19:50;4.20;;;3.05;;
49978;SDS011;35869;50.990;6.962;2023-02-28T19:24:50;5.88;;;4.38;;
49978;SDS011;35869;50.990;6.962;2023-02-28T19:29:51;5.85;;;3.95;;
49978;SDS011;35869;50.990;6.962;2023-02-28T19:34:51;4.00;;;3.53;;
49978;SDS011;35869;50.990;6.962;2023-02-28T19:39:52;4.35;;;3.95;;
49978;SDS011;35869;50.990;6.962;2023-02-28T19:44:52;4.88;;;3.85;;
49978;SDS011;35869;50.990;6.962;2023-02-28T19:49:52;4.05;;;3.60;;
49978;SDS011;35869;50.990;6.962;2023-02-28T19:54:52;7.35;;;4.05;;
49978;SDS011;35869;50.990;6.962;2023-02-28T19:59:52;5.35;;;4.30;;
49978;SDS011;35869;50.990;6.962;2023-02-28T20:10:34;8.45;;;4.78;;
49978;SDS011;35869;50.990;6.962;2023-02-28T20:15:48;6.72;;;5.00;;
49978;SDS011;35869;50.990;6.962;2023-02-28T20:20:57;6.18;;;4.68;;
49978;SDS011;35869;50.990;6.962;2023-02-28T20:26:14;7.20;;;4.38;;
49978;SDS011;35869;50.990;6.962;2023-02-28T20:31:16;6.25;;;4.55;;
49978;SDS011;35869;50.990;6.962;2023-02-28T20:36:19;7.20;;;5.05;;
49978;SDS011;35869;50.990;6.962;2023-02-28T20:41:20;6.18;;;4.65;;
49978;SDS011;35869;50.990;6.962;2023-02-28T20:46:20;7.57;;;5.03;;
49978;SDS011;35869;50.990;6.962;2023-02-28T20:51:23;7.40;;;4.78;;
49978;SDS011;35869;50.990;6.962;2023-02-28T20:56:23;8.55;;;5.88;;
49978;SDS011;35869;50.990;6.962;2023-02-28T21:01:24;6.15;;;5.03;;
49978;SDS011;35869;50.990;6.962;2023-02-28T21:06:29;7.35;;;5.82;;
49978;SDS011;35869;50.990;6.962;2023-02-28T21:11:32;7.13;;;5.20;;
49978;SDS011;35869;50.990;6.962;2023-02-28T21:16:34;6.18;;;5.10;;
49978;SDS011;35869;50.990;6.962;2023-02-28T21:21:35;6.90;;;5.20;;
49978;SDS011;35869;50.990;6.962;2023-02-28T21:26:40;7.15;;;4.90;;
49978;SDS011;35869;50.990;6.962;2023-02-28T21:31:42;6.68;;;5.60;;
49978;SDS011;35869;50.990;6.962;2023-02-28T21:36:43;8.48;;;5.45;;
49978;SDS011;35869;50.990;6.962;2023-02-28T21:41:44;7.68;;;5.43;;
49978;SDS011;35869;50.990;6.962;2023-02-28T21:46:45;6.50;;;5.43;;
49978;SDS011;35869;50.990;6.962;2023-02-28T21:51:47;6.95;;;5.50;;
49978;SDS011;35869;50.990;6.962;2023-02-28T21:56:47;8.77;;;5.40;;
49978;SDS011;35869;50.990;6.962;2023-02-28T22:01:48;7.45;;;5.68;;
49978;SDS011;35869;50.990;6.962;2023-02-28T22:06:50;8.07;;;5.40;;
49978;SDS011;35869;50.990;6.962;2023-02-28T22:11:54;7.00;;;5.43;;
49978;SDS011;35869;50.990;6.962;2023-02-28T22:16:55;8.30;;;6.20;;
49978;SDS011;35869;50.990;6.962;2023-02-28T22:21:56;8.07;;;5.68;;
49978;SDS011;35869;50.990;6.962;2023-02-28T22:26:56;7.40;;;5.73;;
49978;SDS011;35869;50.990;6.962;2023-02-28T22:31:56;8.00;;;6.47;;
49978;SDS011;35869;50.990;6.962;2023-02-28T22:36:57;8.05;;;5.63;;
49978;SDS011;35869;50.990;6.962;2023-02-28T22:41:57;8.20;;;5.55;;
49978;SDS011;35869;50.990;6.962;2023-02-28T22:46:58;9.13;;;6.15;;
49978;SDS011;35869;50.990;6.962;2023-02-28T22:51:58;8.73;;;6.30;;
49978;SDS011;35869;50.990;6.962;2023-02-28T22:56:58;7.03;;;5.88;;
49978;SDS011;35869;50.990;6.962;2023-02-28T23:01:58;11.35;;;6.97;;
49978;SDS011;35869;50.990;6.962;2023-02-28T23:06:58;9.45;;;6.57;;
49978;SDS011;35869;50.990;6.962;2023-02-28T23:11:59;8.77;;;7.32;;
49978;SDS011;35869;50.990;6.962;2023-02-28T23:16:59;8.63;;;6.88;;
49978;SDS011;35869;50.990;6.962;2023-02-28T23:22:00;7.13;;;6.03;;
49978;SDS011;35869;50.990;6.962;2023-02-28T23:27:02;8.32;;;7.05;;
49978;SDS011;35869;50.990;6.962;2023-02-28T23:32:04;9.45;;;6.38;;
49978;SDS011;35869;50.990;6.962;2023-02-28T23:37:04;8.03;;;6.07;;
49978;SDS011;35869;50.990;6.962;2023-02-28T23:42:04;9.73;;;6.65;;
49978;SDS011;35869;50.990;6.962;2023-02-28T23:47:04;7.00;;;5.45;;
49978;SDS011;35869;50.990;6.962;2023-02-28T23:52:05;6.68;;;5.88;;
49978;SDS011;35869;50.990;6.962;2023-02-28T23:57:05;7.60;;;6.40;;
